createdAt,value
2018-11-23T00:01:01.559Z,0
2018-11-23T00:02:11.732Z,0
2018-11-23T00:03:21.902Z,0
2018-11-23T00:04:32.058Z,0
2018-11-23T00:05:41.959Z,0
2018-11-23T00:06:52.116Z,0
2018-11-23T00:08:02.004Z,0
2018-11-23T00:09:11.896Z,0
2018-11-23T00:10:22.053Z,0
2018-11-23T00:11:32.209Z,0
2018-11-23T00:12:42.099Z,0
2018-11-23T00:13:52.260Z,0
2018-11-23T00:15:02.426Z,0
2018-11-23T00:16:12.579Z,0
2018-11-23T00:17:22.739Z,0
2018-11-23T00:18:32.635Z,0
2018-11-23T00:19:42.790Z,0
2018-11-23T00:20:52.421Z,0
2018-11-23T00:22:02.316Z,0
2018-11-23T00:23:12.482Z,0
2018-11-23T00:24:22.643Z,0
2018-11-23T00:25:32.532Z,0
2018-11-23T00:26:42.681Z,0
2018-11-23T00:27:52.573Z,0
2018-11-23T00:29:02.732Z,0
2018-11-23T00:30:12.891Z,0
2018-11-23T00:31:23.049Z,0
2018-11-23T00:32:33.206Z,0
2018-11-23T00:33:42.855Z,0
2018-11-23T00:34:53.009Z,0
2018-11-23T00:36:02.902Z,0
2018-11-23T00:37:13.054Z,0
2018-11-23T00:38:23.214Z,0
2018-11-23T00:39:33.400Z,0
2018-11-23T00:40:43.571Z,0
2018-11-23T00:41:53.723Z,0
2018-11-23T00:43:03.876Z,0
2018-11-23T00:44:14.035Z,0
2018-11-23T00:45:24.188Z,0
2018-11-23T00:46:34.348Z,0
2018-11-23T00:47:44.247Z,0
2018-11-23T00:48:54.135Z,0
2018-11-23T00:50:04.296Z,0
2018-11-23T00:51:14.449Z,0
2018-11-23T00:52:24.337Z,0
2018-11-23T00:53:34.496Z,0
2018-11-23T00:54:44.417Z,0
2018-11-23T00:55:54.311Z,0
2018-11-23T00:57:04.471Z,0
2018-11-23T00:58:14.362Z,0
2018-11-23T00:59:24.265Z,0
2018-11-23T01:00:33.899Z,0
2018-11-23T01:01:44.057Z,0
2018-11-23T01:02:53.970Z,0
2018-11-23T01:04:03.877Z,0
2018-11-23T01:05:14.041Z,0
2018-11-23T01:06:23.947Z,0
2018-11-23T01:07:34.097Z,0
2018-11-23T01:08:44.265Z,0
2018-11-23T01:09:54.168Z,0
2018-11-23T01:11:04.059Z,0
2018-11-23T01:12:14.216Z,0
2018-11-23T01:13:24.370Z,0
2018-11-23T01:14:34.526Z,0
2018-11-23T01:15:44.685Z,0
2018-11-23T01:16:54.842Z,0
2018-11-23T01:18:04.735Z,0
2018-11-23T01:19:14.627Z,0
2018-11-23T01:20:24.788Z,0
2018-11-23T01:21:34.938Z,0
2018-11-23T01:22:45.083Z,0
2018-11-23T01:23:55.300Z,0
2018-11-23T01:25:05.464Z,0
2018-11-23T01:26:15.623Z,0
2018-11-23T01:27:25.778Z,0
2018-11-23T01:28:35.947Z,0
2018-11-23T01:29:46.173Z,0
2018-11-23T01:30:56.315Z,0
2018-11-23T01:32:05.948Z,0
2018-11-23T01:33:15.830Z,0
2018-11-23T01:34:25.730Z,0
2018-11-23T01:35:35.898Z,0
2018-11-23T01:36:46.056Z,0
2018-11-23T01:37:56.213Z,0
2018-11-23T01:39:06.112Z,0
2018-11-23T01:40:16.276Z,0
2018-11-23T01:41:26.484Z,0
2018-11-23T01:42:36.393Z,0
2018-11-23T01:43:46.284Z,0
2018-11-23T01:44:56.439Z,0
2018-11-23T01:46:06.604Z,0
2018-11-23T01:47:16.762Z,0
2018-11-23T01:48:26.919Z,0
2018-11-23T01:49:36.825Z,0
2018-11-23T01:50:46.983Z,0
2018-11-23T01:51:57.189Z,0
2018-11-23T01:53:07.350Z,0
2018-11-23T01:54:17.518Z,0
2018-11-23T01:55:27.419Z,0
2018-11-23T01:56:37.316Z,0
2018-11-23T01:57:47.474Z,0
2018-11-23T01:58:57.635Z,0
2018-11-23T02:00:07.810Z,0
2018-11-23T02:01:17.969Z,0
2018-11-23T02:02:28.127Z,0
2018-11-23T02:03:38.291Z,0
2018-11-23T02:04:48.446Z,0
2018-11-23T02:05:58.603Z,0
2018-11-23T02:07:08.766Z,0
2018-11-23T02:08:18.654Z,0
2018-11-23T02:09:28.802Z,0
2018-11-23T02:10:38.959Z,0
2018-11-23T02:11:49.122Z,0
2018-11-23T02:12:59.277Z,0
2018-11-23T02:14:09.442Z,0
2018-11-23T02:15:19.339Z,0
2018-11-23T02:16:29.494Z,0
2018-11-23T02:17:39.653Z,0
2018-11-23T02:18:49.810Z,0
2018-11-23T02:19:59.974Z,0
2018-11-23T02:21:10.131Z,0
2018-11-23T02:22:20.283Z,0
2018-11-23T02:23:30.168Z,0
2018-11-23T02:24:40.324Z,0
2018-11-23T02:25:50.215Z,0
2018-11-23T02:27:00.385Z,0
2018-11-23T02:28:10.551Z,0
2018-11-23T02:29:20.709Z,0
2018-11-23T02:30:30.619Z,0
2018-11-23T02:31:40.778Z,0
2018-11-23T02:32:50.675Z,0
2018-11-23T02:34:00.988Z,0
2018-11-23T02:35:11.148Z,0
2018-11-23T02:36:21.317Z,0
2018-11-23T02:37:31.211Z,0
2018-11-23T02:38:41.403Z,0
2018-11-23T02:39:51.621Z,0
2018-11-23T02:41:01.773Z,0
2018-11-23T02:42:11.716Z,0
2018-11-23T02:43:21.617Z,0
2018-11-23T02:44:31.579Z,0
2018-11-23T02:45:41.489Z,0
2018-11-23T02:46:51.638Z,0
2018-11-23T02:48:01.814Z,0
2018-11-23T02:49:12.031Z,0
2018-11-23T02:50:22.197Z,0
2018-11-23T02:51:32.358Z,0
2018-11-23T02:52:42.576Z,0
2018-11-23T02:53:52.732Z,0
2018-11-23T02:55:02.918Z,0
2018-11-23T02:56:12.809Z,0
2018-11-23T02:57:22.769Z,0
2018-11-23T02:58:32.926Z,0
2018-11-23T02:59:43.081Z,0
2018-11-23T03:00:53.235Z,0
2018-11-23T03:02:03.390Z,0
2018-11-23T03:03:13.549Z,0
2018-11-23T03:04:23.704Z,0
2018-11-23T03:05:33.855Z,0
2018-11-23T03:06:44.011Z,0
2018-11-23T03:07:53.900Z,0
2018-11-23T03:09:04.059Z,0
2018-11-23T03:10:13.957Z,0
2018-11-23T03:11:24.109Z,0
2018-11-23T03:12:34.007Z,0
2018-11-23T03:13:43.931Z,0
2018-11-23T03:14:54.091Z,0
2018-11-23T03:16:04.035Z,0
2018-11-23T03:17:14.197Z,0
2018-11-23T03:18:24.089Z,0
2018-11-23T03:19:34.248Z,0
2018-11-23T03:20:44.136Z,0
2018-11-23T03:21:54.295Z,0
2018-11-23T03:23:04.450Z,0
2018-11-23T03:24:14.346Z,0
2018-11-23T03:25:24.257Z,0
2018-11-23T03:26:34.414Z,0
2018-11-23T03:27:44.568Z,0
2018-11-23T03:28:54.735Z,0
2018-11-23T03:30:04.903Z,0
2018-11-23T03:31:22.182Z,0
2018-11-23T03:32:32.355Z,0
2018-11-23T03:33:42.249Z,0
2018-11-23T03:34:52.143Z,0
2018-11-23T03:36:01.776Z,0
2018-11-23T03:37:11.675Z,0
2018-11-23T03:38:21.833Z,0
2018-11-23T03:39:38.693Z,0
2018-11-23T03:40:48.848Z,0
2018-11-23T03:41:59.017Z,0
2018-11-23T03:43:09.194Z,0
2018-11-23T03:44:19.079Z,0
2018-11-23T03:45:29.261Z,0
2018-11-23T03:46:39.420Z,0
2018-11-23T03:47:49.315Z,0
2018-11-23T03:48:59.486Z,0
2018-11-23T03:50:09.653Z,0
2018-11-23T03:51:19.811Z,0
2018-11-23T03:52:30.023Z,0
2018-11-23T03:53:40.179Z,0
2018-11-23T03:54:50.068Z,0
2018-11-23T03:56:00.228Z,0
2018-11-23T03:57:10.124Z,0
2018-11-23T03:58:20.030Z,0
2018-11-23T03:59:30.188Z,0
2018-11-23T04:00:40.349Z,0
2018-11-23T04:01:50.238Z,0
2018-11-23T04:03:00.138Z,0
2018-11-23T04:04:10.307Z,0
2018-11-23T04:05:20.482Z,0
2018-11-23T04:06:30.637Z,0
2018-11-23T04:07:40.798Z,0
2018-11-23T04:08:50.962Z,0
2018-11-23T04:10:00.858Z,0
2018-11-23T04:11:11.051Z,0
2018-11-23T04:12:21.207Z,0
2018-11-23T04:13:31.423Z,0
2018-11-23T04:14:41.570Z,0
2018-11-23T04:15:51.499Z,0
2018-11-23T04:17:01.125Z,0
2018-11-23T04:18:11.026Z,0
2018-11-23T04:19:20.915Z,0
2018-11-23T04:20:31.073Z,0
2018-11-23T04:21:40.969Z,0
2018-11-23T04:22:51.138Z,0
2018-11-23T04:24:01.318Z,0
2018-11-23T04:25:11.503Z,0
2018-11-23T04:26:27.204Z,0
2018-11-23T04:27:37.367Z,0
2018-11-23T04:28:47.525Z,0
2018-11-23T04:29:57.683Z,0
2018-11-23T04:31:07.360Z,0
2018-11-23T04:32:17.253Z,0
2018-11-23T04:33:27.414Z,0
2018-11-23T04:34:37.302Z,0
2018-11-23T04:35:47.458Z,0
2018-11-23T04:36:57.614Z,0
2018-11-23T04:38:07.769Z,0
2018-11-23T04:39:17.934Z,0
2018-11-23T04:40:28.098Z,0
2018-11-23T04:41:37.727Z,0
2018-11-23T04:42:47.630Z,0
2018-11-23T04:43:57.524Z,0
2018-11-23T04:45:07.700Z,0
2018-11-23T04:46:17.854Z,0
2018-11-23T04:47:28.013Z,0
2018-11-23T04:48:38.172Z,0
2018-11-23T04:49:48.334Z,0
2018-11-23T04:50:58.487Z,0
2018-11-23T04:52:08.656Z,0
2018-11-23T04:53:18.812Z,0
2018-11-23T04:54:28.756Z,0
2018-11-23T04:55:38.648Z,0
2018-11-23T04:56:48.851Z,0
2018-11-23T04:58:03.456Z,0
2018-11-23T04:59:13.353Z,0
2018-11-23T05:00:23.522Z,0
2018-11-23T05:01:33.415Z,0
2018-11-23T05:02:43.571Z,0
2018-11-23T05:03:53.729Z,0
2018-11-23T05:05:03.881Z,0
2018-11-23T05:06:14.042Z,0
2018-11-23T05:07:24.199Z,0
2018-11-23T05:08:34.094Z,0
2018-11-23T05:09:44.251Z,0
2018-11-23T05:10:54.150Z,0
2018-11-23T05:12:03.785Z,0
2018-11-23T05:13:13.938Z,0
2018-11-23T05:14:24.097Z,0
2018-11-23T05:15:34.260Z,0
2018-11-23T05:16:44.418Z,0
2018-11-23T05:17:54.622Z,0
2018-11-23T05:19:04.793Z,0
2018-11-23T05:20:14.960Z,0
2018-11-23T05:21:25.114Z,0
2018-11-23T05:22:35.289Z,0
2018-11-23T05:23:45.448Z,0
2018-11-23T05:24:55.619Z,0
2018-11-23T05:26:05.775Z,0
2018-11-23T05:27:15.921Z,0
2018-11-23T05:28:26.086Z,0
2018-11-23T05:29:36.293Z,0
2018-11-23T05:30:46.450Z,0
2018-11-23T05:31:56.617Z,0
2018-11-23T05:33:06.807Z,0
2018-11-23T05:34:16.701Z,0
2018-11-23T05:35:26.870Z,0
2018-11-23T05:36:37.620Z,0
2018-11-23T05:37:47.824Z,0
2018-11-23T05:38:57.990Z,0
2018-11-23T05:40:07.894Z,0
2018-11-23T05:41:18.123Z,0
2018-11-23T05:42:28.276Z,0
2018-11-23T05:43:38.436Z,0
2018-11-23T05:44:48.593Z,0
2018-11-23T05:45:58.746Z,0
2018-11-23T05:47:08.901Z,0
2018-11-23T05:48:19.025Z,0
2018-11-23T05:49:29.214Z,0
2018-11-23T05:50:39.128Z,0
2018-11-23T05:51:49.018Z,0
2018-11-23T05:52:59.175Z,0
2018-11-23T05:54:09.111Z,0
2018-11-23T05:55:19.260Z,0
2018-11-23T05:56:29.417Z,0
2018-11-23T05:57:39.572Z,0
2018-11-23T05:58:49.735Z,0
2018-11-23T05:59:59.906Z,0
2018-11-23T06:01:10.058Z,0
2018-11-23T06:02:20.213Z,0
2018-11-23T06:03:30.110Z,0
2018-11-23T06:04:40.268Z,0
2018-11-23T06:05:50.425Z,0
2018-11-23T06:07:00.576Z,0
2018-11-23T06:08:10.726Z,0
2018-11-23T06:09:20.618Z,0
2018-11-23T06:10:30.779Z,0
2018-11-23T06:11:40.935Z,0
2018-11-23T06:12:51.096Z,0
2018-11-23T06:14:01.258Z,0
2018-11-23T06:15:11.149Z,0
2018-11-23T06:16:21.317Z,0
2018-11-23T06:17:31.488Z,0
2018-11-23T06:18:41.645Z,0
2018-11-23T06:19:51.805Z,0
2018-11-23T06:21:01.700Z,0
2018-11-23T06:22:11.588Z,0
2018-11-23T06:23:21.746Z,0
2018-11-23T06:24:38.759Z,0
2018-11-23T06:25:48.641Z,0
2018-11-23T06:26:58.789Z,0
2018-11-23T06:28:08.704Z,0
2018-11-23T06:29:18.863Z,0
2018-11-23T06:30:29.016Z,0
2018-11-23T06:31:39.175Z,0
2018-11-23T06:32:49.329Z,0
2018-11-23T06:33:59.534Z,0
2018-11-23T06:35:09.431Z,0
2018-11-23T06:36:19.593Z,0
2018-11-23T06:37:29.747Z,0
2018-11-23T06:38:39.908Z,0
2018-11-23T06:39:50.060Z,0
2018-11-23T06:41:00.209Z,0
2018-11-23T06:42:10.399Z,0
2018-11-23T06:43:20.563Z,0
2018-11-23T06:44:30.485Z,0
2018-11-23T06:45:40.644Z,0
2018-11-23T06:46:50.584Z,0
2018-11-23T06:48:00.745Z,0
2018-11-23T06:49:10.918Z,0
2018-11-23T06:50:21.077Z,0
2018-11-23T06:51:31.232Z,0
2018-11-23T06:52:41.132Z,0
2018-11-23T06:53:51.294Z,0
2018-11-23T06:55:01.455Z,0
2018-11-23T06:56:11.348Z,0
2018-11-23T06:57:21.236Z,0
2018-11-23T06:58:31.133Z,0
2018-11-23T06:59:41.288Z,0
2018-11-23T07:00:51.175Z,0
2018-11-23T07:02:01.072Z,0
2018-11-23T07:03:11.243Z,0
2018-11-23T07:04:21.166Z,0
2018-11-23T07:05:31.334Z,0
2018-11-23T07:06:41.491Z,0
2018-11-23T07:07:51.653Z,0
2018-11-23T07:09:02.319Z,5
2018-11-23T07:10:12.470Z,5
2018-11-23T07:11:22.624Z,5
2018-11-23T07:12:32.783Z,5
2018-11-23T07:13:42.949Z,5
2018-11-23T07:14:52.633Z,5
2018-11-23T07:16:02.784Z,5
2018-11-23T07:17:12.943Z,5
2018-11-23T07:18:22.890Z,5
2018-11-23T07:19:33.039Z,5
2018-11-23T07:20:43.187Z,5
2018-11-23T07:21:53.342Z,5
2018-11-23T07:23:03.508Z,5
2018-11-23T07:24:13.669Z,10
2018-11-23T07:25:23.818Z,10
2018-11-23T07:26:33.977Z,10
2018-11-23T07:27:44.142Z,10
2018-11-23T07:28:53.773Z,10
2018-11-23T07:30:03.993Z,10
2018-11-23T07:31:14.153Z,15
2018-11-23T07:32:24.309Z,15
2018-11-23T07:33:34.196Z,15
2018-11-23T07:34:44.354Z,15
2018-11-23T07:35:54.243Z,15
2018-11-23T07:37:04.394Z,20
2018-11-23T07:38:14.607Z,20
2018-11-23T07:39:24.769Z,20
2018-11-23T07:40:34.652Z,20
2018-11-23T07:41:44.541Z,20
2018-11-23T07:42:54.708Z,20
2018-11-23T07:44:04.865Z,20
2018-11-23T07:45:15.022Z,20
2018-11-23T07:46:25.186Z,20
2018-11-23T07:47:35.347Z,20
2018-11-23T07:48:45.509Z,20
2018-11-23T07:49:55.673Z,20
2018-11-23T07:51:05.611Z,20
2018-11-23T07:52:15.778Z,20
2018-11-23T07:53:25.933Z,20
2018-11-23T07:54:36.134Z,20
2018-11-23T07:55:46.287Z,20
2018-11-23T07:56:56.447Z,20
2018-11-23T07:58:06.605Z,25
2018-11-23T07:59:16.497Z,20
2018-11-23T08:00:26.408Z,20
2018-11-23T08:01:36.610Z,20
2018-11-23T08:02:46.782Z,20
2018-11-23T08:03:56.944Z,20
2018-11-23T08:05:07.099Z,20
2018-11-23T08:06:16.723Z,25
2018-11-23T08:07:26.615Z,25
2018-11-23T08:08:36.510Z,30
2018-11-23T08:09:46.671Z,30
2018-11-23T08:10:56.895Z,30
2018-11-23T08:12:07.052Z,30
2018-11-23T08:13:17.261Z,30
2018-11-23T08:14:27.415Z,30
2018-11-23T08:15:37.721Z,25
2018-11-23T08:16:47.883Z,30
2018-11-23T08:17:58.038Z,30
2018-11-23T08:19:08.195Z,35
2018-11-23T08:20:18.086Z,35
2018-11-23T08:21:28.256Z,35
2018-11-23T08:22:38.144Z,35
2018-11-23T08:23:48.298Z,35
2018-11-23T08:24:58.465Z,40
2018-11-23T08:26:08.638Z,40
2018-11-23T08:27:18.800Z,40
2018-11-23T08:28:28.966Z,40
2018-11-23T08:29:39.113Z,40
2018-11-23T08:30:49.316Z,35
2018-11-23T08:31:59.205Z,35
2018-11-23T08:33:09.369Z,30
2018-11-23T08:34:19.522Z,35
2018-11-23T08:35:29.416Z,35
2018-11-23T08:36:39.571Z,35
2018-11-23T08:37:49.738Z,35
2018-11-23T08:39:04.582Z,35
2018-11-23T08:40:14.973Z,35
2018-11-23T08:41:25.123Z,40
2018-11-23T08:42:35.290Z,40
2018-11-23T08:43:45.179Z,45
2018-11-23T08:44:55.356Z,45
2018-11-23T08:46:05.524Z,45
2018-11-23T08:47:15.678Z,45
2018-11-23T08:48:25.889Z,45
2018-11-23T08:49:36.052Z,45
2018-11-23T08:50:46.231Z,45
2018-11-23T08:51:56.391Z,55
2018-11-23T08:53:06.557Z,55
2018-11-23T08:54:16.720Z,60
2018-11-23T08:55:26.651Z,65
2018-11-23T08:56:36.859Z,65
2018-11-23T08:57:47.022Z,65
2018-11-23T08:58:57.181Z,65
2018-11-23T09:00:06.834Z,65
2018-11-23T09:01:16.727Z,65
2018-11-23T09:02:26.923Z,70
2018-11-23T09:03:36.549Z,75
2018-11-23T09:04:46.708Z,75
2018-11-23T09:05:56.598Z,80
2018-11-23T09:07:06.507Z,90
2018-11-23T09:08:16.410Z,95
2018-11-23T09:09:26.562Z,110
2018-11-23T09:10:36.725Z,115
2018-11-23T09:11:46.903Z,120
2018-11-23T09:12:57.067Z,120
2018-11-23T09:14:07.222Z,125
2018-11-23T09:15:17.581Z,130
2018-11-23T09:16:27.543Z,135
2018-11-23T09:17:37.707Z,150
2018-11-23T09:18:47.877Z,165
2018-11-23T09:19:57.764Z,165
2018-11-23T09:21:07.653Z,170
2018-11-23T09:22:23.292Z,170
2018-11-23T09:23:33.703Z,175
2018-11-23T09:24:43.596Z,170
2018-11-23T09:25:53.810Z,175
2018-11-23T09:27:03.964Z,175
2018-11-23T09:28:13.853Z,175
2018-11-23T09:29:24.102Z,180
2018-11-23T09:30:34.272Z,180
2018-11-23T09:31:44.170Z,175
2018-11-23T09:32:54.330Z,180
2018-11-23T09:34:04.239Z,175
2018-11-23T09:35:14.151Z,185
2018-11-23T09:36:24.299Z,180
2018-11-23T09:37:34.197Z,190
2018-11-23T09:38:43.829Z,190
2018-11-23T09:39:54.035Z,190
2018-11-23T09:41:03.928Z,185
2018-11-23T09:42:13.556Z,200
2018-11-23T09:43:23.759Z,205
2018-11-23T09:44:34.040Z,195
2018-11-23T09:45:44.199Z,195
2018-11-23T09:46:54.363Z,190
2018-11-23T09:48:04.261Z,190
2018-11-23T09:49:14.490Z,195
2018-11-23T09:50:24.721Z,215
2018-11-23T09:51:35.112Z,205
2018-11-23T09:52:45.277Z,210
2018-11-23T09:53:55.171Z,210
2018-11-23T09:55:05.330Z,215
2018-11-23T09:56:14.966Z,215
2018-11-23T09:57:25.170Z,225
2018-11-23T09:58:35.333Z,220
2018-11-23T09:59:45.650Z,225
2018-11-23T10:00:55.921Z,230
2018-11-23T10:02:06.767Z,225
2018-11-23T10:03:16.988Z,225
2018-11-23T10:04:27.321Z,215
2018-11-23T10:05:37.252Z,215
2018-11-23T10:06:47.445Z,215
2018-11-23T10:07:57.608Z,220
2018-11-23T10:09:07.507Z,230
2018-11-23T10:10:17.392Z,220
2018-11-23T10:11:27.550Z,220
2018-11-23T10:12:37.712Z,240
2018-11-23T10:13:47.866Z,220
2018-11-23T10:14:57.501Z,215
2018-11-23T10:16:07.397Z,220
2018-11-23T10:17:17.543Z,215
2018-11-23T10:18:27.919Z,230
2018-11-23T10:19:38.073Z,225
2018-11-23T10:20:48.231Z,235
2018-11-23T10:21:58.124Z,235
2018-11-23T10:23:08.292Z,240
2018-11-23T10:24:18.224Z,245
2018-11-23T10:25:28.126Z,245
2018-11-23T10:26:38.011Z,240
2018-11-23T10:27:47.933Z,240
2018-11-23T10:28:57.571Z,265
2018-11-23T10:30:08.614Z,260
2018-11-23T10:31:18.780Z,250
2018-11-23T10:32:28.943Z,250
2018-11-23T10:33:39.117Z,250
2018-11-23T10:34:49.011Z,250
2018-11-23T10:35:59.356Z,250
2018-11-23T10:37:09.604Z,255
2018-11-23T10:38:19.770Z,245
2018-11-23T10:39:29.668Z,250
2018-11-23T10:40:39.836Z,225
2018-11-23T10:41:49.720Z,240
2018-11-23T10:42:59.618Z,245
2018-11-23T10:44:09.777Z,265
2018-11-23T10:45:19.943Z,250
2018-11-23T10:46:30.117Z,240
2018-11-23T10:47:40.324Z,240
2018-11-23T10:48:50.529Z,270
2018-11-23T10:50:00.680Z,255
2018-11-23T10:51:10.572Z,270
2018-11-23T10:52:20.475Z,250
2018-11-23T10:53:30.656Z,235
2018-11-23T10:54:40.561Z,230
2018-11-23T10:55:50.757Z,215
2018-11-23T10:57:00.705Z,220
2018-11-23T10:58:10.908Z,210
2018-11-23T10:59:21.083Z,210
2018-11-23T11:00:30.981Z,200
2018-11-23T11:01:40.617Z,200
2018-11-23T11:02:50.775Z,200
2018-11-23T11:04:00.932Z,200
2018-11-23T11:05:11.088Z,200
2018-11-23T11:06:20.983Z,200
2018-11-23T11:07:31.143Z,190
2018-11-23T11:08:41.036Z,180
2018-11-23T11:09:51.206Z,180
2018-11-23T11:11:01.459Z,185
2018-11-23T11:12:11.377Z,195
2018-11-23T11:13:21.273Z,195
2018-11-23T11:14:31.424Z,180
2018-11-23T11:15:41.332Z,175
2018-11-23T11:16:51.491Z,175
2018-11-23T11:18:01.390Z,185
2018-11-23T11:19:11.294Z,170
2018-11-23T11:20:21.461Z,165
2018-11-23T11:21:31.365Z,160
2018-11-23T11:22:41.263Z,160
2018-11-23T11:23:51.431Z,165
2018-11-23T11:25:01.330Z,165
2018-11-23T11:26:11.488Z,160
2018-11-23T11:27:21.661Z,150
2018-11-23T11:28:31.830Z,150
2018-11-23T11:29:42.009Z,150
2018-11-23T11:30:52.206Z,145
2018-11-23T11:32:02.376Z,145
2018-11-23T11:33:12.537Z,140
2018-11-23T11:34:22.491Z,130
2018-11-23T11:35:32.649Z,130
2018-11-23T11:36:42.804Z,135
2018-11-23T11:37:52.696Z,155
2018-11-23T11:39:02.323Z,170
2018-11-23T11:40:12.489Z,180
2018-11-23T11:41:22.378Z,170
2018-11-23T11:42:32.537Z,165
2018-11-23T11:43:42.444Z,160
2018-11-23T11:44:52.604Z,150
2018-11-23T11:46:02.768Z,160
2018-11-23T11:47:12.922Z,160
2018-11-23T11:48:23.088Z,160
2018-11-23T11:49:32.985Z,160
2018-11-23T11:50:43.139Z,165
2018-11-23T11:51:53.042Z,165
2018-11-23T11:53:03.201Z,160
2018-11-23T11:54:13.351Z,145
2018-11-23T11:55:23.256Z,145
2018-11-23T11:56:33.419Z,145
2018-11-23T11:57:43.580Z,150
2018-11-23T11:58:53.750Z,145
2018-11-23T12:00:03.914Z,140
2018-11-23T12:01:13.823Z,140
2018-11-23T12:02:23.985Z,135
2018-11-23T12:03:34.140Z,140
2018-11-23T12:04:44.299Z,145
2018-11-23T12:05:54.475Z,145
2018-11-23T12:07:04.634Z,150
2018-11-23T12:08:14.784Z,150
2018-11-23T12:09:24.677Z,145
2018-11-23T12:10:34.844Z,145
2018-11-23T12:11:45.013Z,140
2018-11-23T12:12:55.181Z,140
2018-11-23T12:14:05.341Z,135
2018-11-23T12:15:15.231Z,140
2018-11-23T12:16:25.615Z,140
2018-11-23T12:17:35.519Z,140
2018-11-23T12:18:45.426Z,135
2018-11-23T12:19:55.590Z,125
2018-11-23T12:21:05.800Z,120
2018-11-23T12:22:15.682Z,120
2018-11-23T12:23:25.576Z,115
2018-11-23T12:24:35.470Z,120
2018-11-23T12:25:45.619Z,125
2018-11-23T12:26:55.565Z,140
2018-11-23T12:28:05.733Z,135
2018-11-23T12:29:15.888Z,135
2018-11-23T12:30:25.549Z,135
2018-11-23T12:31:35.720Z,135
2018-11-23T12:32:45.884Z,130
2018-11-23T12:33:56.047Z,130
2018-11-23T12:35:06.209Z,130
2018-11-23T12:36:16.103Z,135
2018-11-23T12:37:25.993Z,135
2018-11-23T12:38:36.150Z,135
2018-11-23T12:39:46.309Z,135
2018-11-23T12:40:56.472Z,130
2018-11-23T12:42:06.368Z,125
2018-11-23T12:43:16.518Z,125
2018-11-23T12:44:26.687Z,130
2018-11-23T12:45:36.581Z,135
2018-11-23T12:46:46.744Z,130
2018-11-23T12:47:56.900Z,125
2018-11-23T12:49:07.076Z,125
2018-11-23T12:50:17.243Z,125
2018-11-23T12:51:27.139Z,130
2018-11-23T12:52:37.298Z,130
2018-11-23T12:53:47.454Z,125
2018-11-23T12:54:57.622Z,120
2018-11-23T12:56:07.777Z,120
2018-11-23T12:57:18.180Z,120
2018-11-23T12:58:28.386Z,115
2018-11-23T12:59:38.552Z,120
2018-11-23T13:00:48.708Z,125
2018-11-23T13:01:58.598Z,140
2018-11-23T13:03:08.763Z,150
2018-11-23T13:04:18.405Z,150
2018-11-23T13:05:28.581Z,140
2018-11-23T13:06:38.477Z,140
2018-11-23T13:07:48.382Z,140
2018-11-23T13:08:58.285Z,130
2018-11-23T13:10:08.453Z,125
2018-11-23T13:11:18.616Z,125
2018-11-23T13:12:28.250Z,120
2018-11-23T13:13:38.410Z,125
2018-11-23T13:14:48.576Z,125
2018-11-23T13:15:58.844Z,125
2018-11-23T13:17:09.006Z,120
2018-11-23T13:18:19.175Z,115
2018-11-23T13:19:29.073Z,105
2018-11-23T13:20:39.234Z,110
2018-11-23T13:21:49.389Z,115
2018-11-23T13:22:59.541Z,115
2018-11-23T13:24:09.717Z,105
2018-11-23T13:25:19.601Z,105
2018-11-23T13:26:29.489Z,110
2018-11-23T13:27:39.645Z,115
2018-11-23T13:28:49.589Z,110
2018-11-23T13:29:59.786Z,105
2018-11-23T13:31:09.982Z,110
2018-11-23T13:32:19.876Z,100
2018-11-23T13:33:29.776Z,90
2018-11-23T13:34:39.675Z,90
2018-11-23T13:35:49.301Z,85
2018-11-23T13:36:59.201Z,85
2018-11-23T13:38:09.373Z,85
2018-11-23T13:39:19.276Z,85
2018-11-23T13:40:29.443Z,85
2018-11-23T13:41:39.602Z,80
2018-11-23T13:42:49.755Z,75
2018-11-23T13:43:59.997Z,75
2018-11-23T13:45:09.919Z,75
2018-11-23T13:46:20.084Z,70
2018-11-23T13:47:30.012Z,70
2018-11-23T13:48:40.187Z,75
2018-11-23T13:49:50.686Z,75
2018-11-23T13:51:01.016Z,70
2018-11-23T13:52:11.170Z,65
2018-11-23T13:53:21.339Z,65
2018-11-23T13:54:31.229Z,65
2018-11-23T13:55:41.438Z,65
2018-11-23T13:56:51.594Z,65
2018-11-23T13:58:01.393Z,65
2018-11-23T13:59:11.308Z,60
2018-11-23T14:00:21.484Z,60
2018-11-23T14:01:31.384Z,65
2018-11-23T14:02:41.552Z,65
2018-11-23T14:03:51.712Z,65
2018-11-23T14:05:01.866Z,60
2018-11-23T14:06:11.771Z,55
2018-11-23T14:07:21.659Z,60
2018-11-23T14:08:31.816Z,60
2018-11-23T14:09:41.981Z,55
2018-11-23T14:10:51.626Z,50
2018-11-23T14:12:01.800Z,50
2018-11-23T14:13:18.119Z,50
2018-11-23T14:14:28.272Z,45
2018-11-23T14:15:38.174Z,50
2018-11-23T14:16:48.328Z,50
2018-11-23T14:17:58.232Z,45
2018-11-23T14:19:08.404Z,40
2018-11-23T14:20:18.576Z,40
2018-11-23T14:21:28.473Z,40
2018-11-23T14:22:38.641Z,40
2018-11-23T14:23:48.541Z,40
2018-11-23T14:24:58.437Z,35
2018-11-23T14:26:08.599Z,40
2018-11-23T14:27:18.761Z,40
2018-11-23T14:28:28.923Z,35
2018-11-23T14:29:39.081Z,35
2018-11-23T14:30:49.235Z,35
2018-11-23T14:31:59.395Z,35
2018-11-23T14:33:09.548Z,35
2018-11-23T14:34:19.757Z,30
2018-11-23T14:35:29.714Z,30
2018-11-23T14:36:39.611Z,30
2018-11-23T14:37:49.505Z,25
2018-11-23T14:38:59.661Z,25
2018-11-23T14:40:09.843Z,25
2018-11-23T14:41:20.015Z,25
2018-11-23T14:42:30.212Z,25
2018-11-23T14:43:40.384Z,25
2018-11-23T14:44:50.560Z,25
2018-11-23T14:46:00.487Z,25
2018-11-23T14:47:09.858Z,20
2018-11-23T14:48:19.246Z,20
2018-11-23T14:49:28.924Z,20
2018-11-23T14:50:39.093Z,20
2018-11-23T14:51:49.005Z,20
2018-11-23T14:52:58.966Z,15
2018-11-23T14:54:08.867Z,15
2018-11-23T14:55:18.774Z,15
2018-11-23T14:56:28.718Z,15
2018-11-23T14:57:38.893Z,10
2018-11-23T14:58:49.054Z,10
2018-11-23T14:59:58.972Z,10
2018-11-23T15:01:08.875Z,10
2018-11-23T15:02:19.060Z,10
2018-11-23T15:03:29.232Z,10
2018-11-23T15:04:39.443Z,10
2018-11-23T15:05:49.608Z,5
2018-11-23T15:06:59.507Z,5
2018-11-23T15:08:09.401Z,5
2018-11-23T15:09:19.556Z,5
2018-11-23T15:10:29.728Z,5
2018-11-23T15:11:39.896Z,5
2018-11-23T15:12:50.075Z,5
2018-11-23T15:14:00.227Z,5
2018-11-23T15:15:10.390Z,5
2018-11-23T15:16:20.611Z,5
2018-11-23T15:17:30.521Z,0
2018-11-23T15:18:40.724Z,0
2018-11-23T15:19:50.877Z,0
2018-11-23T15:21:01.044Z,0
2018-11-23T15:22:10.934Z,0
2018-11-23T15:23:21.095Z,0
2018-11-23T15:24:31.260Z,0
2018-11-23T15:25:41.427Z,0
2018-11-23T15:26:51.605Z,0
2018-11-23T15:28:01.498Z,0
2018-11-23T15:29:11.406Z,0
2018-11-23T15:30:21.843Z,0
2018-11-23T15:31:32.017Z,0
2018-11-23T15:32:41.675Z,0
2018-11-23T15:33:51.626Z,0
2018-11-23T15:35:01.789Z,0
2018-11-23T15:36:11.709Z,0
2018-11-23T15:37:21.914Z,0
2018-11-23T15:38:32.079Z,0
2018-11-23T15:39:42.299Z,0
2018-11-23T15:40:52.458Z,0
2018-11-23T15:42:02.629Z,0
2018-11-23T15:43:12.790Z,0
2018-11-23T15:44:22.968Z,0
2018-11-23T15:45:33.126Z,0
2018-11-23T15:46:43.301Z,0
2018-11-23T15:47:52.976Z,0
2018-11-23T15:49:03.173Z,0
2018-11-23T15:50:13.859Z,0
2018-11-23T15:51:23.806Z,0
2018-11-23T15:52:33.700Z,0
2018-11-23T15:53:43.932Z,0
2018-11-23T15:54:53.838Z,0
2018-11-23T15:56:04.039Z,0
2018-11-23T15:57:14.246Z,0
2018-11-23T15:58:24.409Z,0
2018-11-23T15:59:34.566Z,0
2018-11-23T16:00:44.754Z,0
2018-11-23T16:01:54.925Z,0
2018-11-23T16:03:05.153Z,0
2018-11-23T16:04:15.313Z,0
2018-11-23T16:05:25.815Z,0
2018-11-23T16:06:36.367Z,0
2018-11-23T16:07:46.611Z,0
2018-11-23T16:08:56.823Z,0
2018-11-23T16:10:06.715Z,0
2018-11-23T16:11:16.611Z,0
2018-11-23T16:12:26.766Z,0
2018-11-23T16:13:36.933Z,0
2018-11-23T16:14:47.099Z,0
2018-11-23T16:15:56.988Z,0
2018-11-23T16:17:07.152Z,0
2018-11-23T16:18:17.321Z,0
2018-11-23T16:19:27.479Z,0
2018-11-23T16:20:37.634Z,0
2018-11-23T16:21:47.533Z,0
2018-11-23T16:22:57.698Z,0
2018-11-23T16:24:07.866Z,0
2018-11-23T16:25:18.037Z,0
2018-11-23T16:26:28.255Z,0
2018-11-23T16:27:38.151Z,0
2018-11-23T16:28:48.313Z,0
2018-11-23T16:29:58.466Z,0
2018-11-23T16:31:08.645Z,0
2018-11-23T16:32:18.285Z,0
2018-11-23T16:33:29.592Z,0
2018-11-23T16:34:39.756Z,0
2018-11-23T16:35:49.981Z,0
2018-11-23T16:37:00.147Z,0
2018-11-23T16:38:10.311Z,0
2018-11-23T16:39:20.220Z,0
2018-11-23T16:40:30.386Z,0
2018-11-23T16:41:40.561Z,0
2018-11-23T16:42:50.726Z,0
2018-11-23T16:44:00.889Z,0
2018-11-23T16:45:11.051Z,0
2018-11-23T16:46:21.228Z,0
2018-11-23T16:47:31.390Z,0
2018-11-23T16:48:41.614Z,0
2018-11-23T16:49:51.776Z,0
2018-11-23T16:51:01.957Z,0